Time;durP1;ratioP1;P1;durP2;ratioP2;P2;SDS_P1;SDS_P2;PMS_P1;PMS_P2;Temp;Humidity;BMP_temperature;BMP_pressure;BME280_temperature;BME280_humidity;BME280_pressure;Samples;Min_cycle;Max_cycle;Signal;HPM_P1;HPM_P2
2024/03/06 00:02:09;;;;;;;;;;;;;;;;;;5084697;28;19960;-91
2024/03/06 00:04:36;;;;;;;;;;;;;;;;;;5082035;28;19928;-91
2024/03/06 00:07:03;;;;;;;;;;;;;;;;;;5066111;28;20355;-88
2024/03/06 00:09:30;;;;;;;;;;;;;;;;;;5068461;28;19982;-89
2024/03/06 00:11:57;;;;;;;;;;;;;;;;;;5069585;28;19928;-90
2024/03/06 00:14:24;;;;;;;;;;;;;;;;;;5075299;28;20256;-90
2024/03/06 00:16:51;;;;;;;;;;;;;;;;;;5064946;28;20007;-90
2024/03/06 00:19:18;;;;;;;;;;;;;;;;;;5075192;28;20307;-90
2024/03/06 00:21:45;;;;;;;;;;;;;;;;;;5069027;28;19995;-91
2024/03/06 00:24:12;;;;;;;;;;;;;;;;;;5076925;28;20015;-93
2024/03/06 00:26:39;;;;;;;;;;;;;;;;;;5062959;28;19960;-92
2024/03/06 00:29:06;;;;;;;;;;;;;;;;;;5063223;28;19960;-92
2024/03/06 00:31:33;;;;;;;;;;;;;;;;;;5069933;28;19995;-92
2024/03/06 00:34:00;;;;;;;;;;;;;;;;;;5079808;28;19968;-91
2024/03/06 00:36:27;;;;;;;;;;;;;;;;;;5077437;28;19954;-91
2024/03/06 00:38:54;;;;;;;;;;;;;;;;;;5070914;28;20024;-90
2024/03/06 00:41:21;;;;;;;;;;;;;;;;;;5063914;28;19972;-89
2024/03/06 00:43:48;;;;;;;;;;;;;;;;;;5066236;28;19924;-88
2024/03/06 00:46:15;;;;;;;;;;;;;;;;;;5071655;28;19967;-90
2024/03/06 00:48:42;;;;;;;;;;;;;;;;;;5073151;28;19939;-88
2024/03/06 00:51:09;;;;;;;;;;;;;;;;;;5072518;28;19928;-89
2024/03/06 00:53:36;;;;;;;;;;;;;;;;;;5072485;28;20029;-87
2024/03/06 00:56:03;;;;;;;;;;;;;;;;;;5068772;28;19934;-87
2024/03/06 00:58:30;;;;;;;;;;;;;;;;;;5068526;28;20020;-92
2024/03/06 01:00:58;;;;;;;;;;;;;;;;;;5072488;28;20031;-91
2024/03/06 01:03:25;;;;;;;;;;;;;;;;;;5070324;28;19935;-92
2024/03/06 01:05:53;;;;;;;;;;;;;;;;;;5067935;28;19932;-88
2024/03/06 01:08:20;;;;;;;;;;;;;;;;;;5066117;28;19935;-88
2024/03/06 01:10:47;;;;;;;;;;;;;;;;;;5072811;28;19982;-88
2024/03/06 01:13:14;;;;;;;;;;;;;;;;;;5067226;28;19982;-92
2024/03/06 01:15:41;;;;;;;;;;;;;;;;;;5064171;28;20392;-91
2024/03/06 01:18:08;;;;;;;;;;;;;;;;;;5076550;28;19971;-89
2024/03/06 01:20:36;;;;;;;;;;;;;;;;;;5074032;28;19936;-90
2024/03/06 01:23:02;;;;;;;;;;;;;;;;;;5078654;28;19995;-92
2024/03/06 01:25:29;;;;;;;;;;;;;;;;;;5064511;28;19928;-90
2024/03/06 01:27:57;;;;;;;;;;;;;;;;;;5074076;28;19975;-92
2024/03/06 01:30:24;;;;;;;;;;;;;;;;;;5070112;28;19967;-87
2024/03/06 01:32:51;;;;;;;;;;;;;;;;;;5077926;28;20015;-90
2024/03/06 01:35:18;;;;;;;;;;;;;;;;;;5080753;28;19936;-89
2024/03/06 01:37:45;;;;;;;;;;;;;;;;;;5069935;28;19964;-90
2024/03/06 01:40:12;;;;;;;;;;;;;;;;;;5077537;28;19934;-90
2024/03/06 01:42:39;;;;;;;;;;;;;;;;;;5060313;28;20047;-90
2024/03/06 01:45:07;;;;;;;;;;;;;;;;;;5071676;28;20383;-89
2024/03/06 01:47:34;;;;;;;;;;;;;;;;;;5073394;28;19928;-91
2024/03/06 01:50:01;;;;;;;;;;;;;;;;;;5078572;28;19929;-91
2024/03/06 01:52:28;;;;;;;;;;;;;;;;;;5079984;28;19949;-91
2024/03/06 01:54:56;;;;;;;;;;;;;;;;;;5066845;28;20068;-93
2024/03/06 01:57:23;;;;;;;;;;;;;;;;;;5077311;28;19932;-93
2024/03/06 01:59:50;;;;;;;;;;;;;;;;;;5072163;28;20333;-91
2024/03/06 02:02:17;;;;;;;;;;;;;;;;;;5065888;28;20368;-91
2024/03/06 02:04:44;;;;;;;;;;;;;;;;;;5067624;28;19982;-92
2024/03/06 02:07:11;;;;;;;;;;;;;;;;;;5076968;28;19932;-93
2024/03/06 02:09:38;;;;;;;;;;;;;;;;;;5070831;28;20039;-91
2024/03/06 02:12:06;;;;;;;;;;;;;;;;;;5072147;28;20395;-91
2024/03/06 02:14:33;;;;;;;;;;;;;;;;;;5072397;28;19929;-93
2024/03/06 02:17:00;;;;;;;;;;;;;;;;;;5075504;28;19978;-93
2024/03/06 02:19:27;;;;;;;;;;;;;;;;;;5076784;28;19983;-92
2024/03/06 02:21:54;;;;;;;;;;;;;;;;;;5074525;28;20063;-93
2024/03/06 02:24:21;;;;;;;;;;;;;;;;;;5074701;28;19975;-93
2024/03/06 02:26:51;;;;;;;;;;;;;;;;;;5075125;28;20577;-93
2024/03/06 02:29:18;;;;;;;;;;;;;;;;;;5070579;28;20019;-92
2024/03/06 02:31:45;;;;;;;;;;;;;;;;;;5070902;28;20032;-91
2024/03/06 02:34:13;;;;;;;;;;;;;;;;;;5056856;28;19976;-93
2024/03/06 02:36:40;;;;;;;;;;;;;;;;;;5078283;28;19958;-94
2024/03/06 02:39:08;;;;;;;;;;;;;;;;;;5077369;28;20003;-93
2024/03/06 02:41:35;;;;;;;;;;;;;;;;;;5064016;28;19968;-94
2024/03/06 02:44:02;;;;;;;;;;;;;;;;;;5073568;28;19951;-92
2024/03/06 02:46:33;;;;;;;;;;;;;;;;;;5064649;28;19932;-93
2024/03/06 02:49:00;;;;;;;;;;;;;;;;;;5065653;28;19935;-91
2024/03/06 02:51:27;;;;;;;;;;;;;;;;;;5070330;28;20019;-92
2024/03/06 02:53:54;;;;;;;;;;;;;;;;;;5075963;28;20003;-92
2024/03/06 02:56:21;;;;;;;;;;;;;;;;;;5068322;28;19932;-91
2024/03/06 02:58:48;;;;;;;;;;;;;;;;;;5059176;28;19956;-90
2024/03/06 03:01:15;;;;;;;;;;;;;;;;;;5064680;28;19928;-92
2024/03/06 03:03:42;;;;;;;;;;;;;;;;;;5068755;28;19928;-88
2024/03/06 03:06:09;;;;;;;;;;;;;;;;;;5069499;28;20295;-88
2024/03/06 03:08:36;;;;;;;;;;;;;;;;;;5066801;28;20026;-90
2024/03/06 03:11:03;;;;;;;;;;;;;;;;;;5072662;28;20029;-89
2024/03/06 03:13:31;;;;;;;;;;;;;;;;;;5071776;28;19982;-91
2024/03/06 03:15:58;;;;;;;;;;;;;;;;;;5072142;28;19933;-90
2024/03/06 03:18:25;;;;;;;;;;;;;;;;;;5068370;28;20347;-89
2024/03/06 03:20:52;;;;;;;;;;;;;;;;;;5063779;28;19963;-89
2024/03/06 03:23:21;;;;;;;;;;;;;;;;;;5072216;28;20054;-88
2024/03/06 03:25:49;;;;;;;;;;;;;;;;;;5072442;28;19928;-91
2024/03/06 03:28:16;;;;;;;;;;;;;;;;;;5072334;28;20421;-91
2024/03/06 03:30:43;;;;;;;;;;;;;;;;;;5070368;28;20016;-92
2024/03/06 03:33:10;;;;;;;;;;;;;;;;;;5060489;28;19925;-93
2024/03/06 03:35:38;;;;;;;;;;;;;;;;;;5075085;28;19984;-92
2024/03/06 03:38:05;;;;;;;;;;;;;;;;;;5058225;28;19928;-94
2024/03/06 03:40:32;;;;;;;;;;;;;;;;;;5072340;28;19928;-89
2024/03/06 03:43:05;;;;;;;;;;;;;;;;;;5070301;28;19960;-93
2024/03/06 03:45:33;;;;;;;;;;;;;;;;;;5064130;28;20379;-93
2024/03/06 03:48:00;;;;;;;;;;;;;;;;;;5065080;28;19934;-92
2024/03/06 03:50:27;;;;;;;;;;;;;;;;;;5069034;28;19928;-96
2024/03/06 03:52:54;;;;;;;;;;;;;;;;;;5070014;28;19968;-93
2024/03/06 03:55:21;;;;;;;;;;;;;;;;;;5068013;28;20291;-93
2024/03/06 03:57:48;;;;;;;;;;;;;;;;;;5074415;28;19958;-93
2024/03/06 04:00:16;;;;;;;;;;;;;;;;;;5074933;28;19944;-94
2024/03/06 04:02:43;;;;;;;;;;;;;;;;;;5071149;28;19929;-93
2024/03/06 04:05:10;;;;;;;;;;;;;;;;;;5074159;28;19932;-86
2024/03/06 04:07:37;;;;;;;;;;;;;;;;;;5074034;28;19924;-93
2024/03/06 04:10:04;;;;;;;;;;;;;;;;;;5073357;28;19944;-92
2024/03/06 04:12:31;;;;;;;;;;;;;;;;;;5074787;28;19935;-93
2024/03/06 04:14:58;;;;;;;;;;;;;;;;;;5071006;28;19933;-93
2024/03/06 04:17:25;;;;;;;;;;;;;;;;;;5064501;28;19968;-93
2024/03/06 04:19:53;;;;;;;;;;;;;;;;;;5073292;28;19974;-91
2024/03/06 04:22:20;;;;;;;;;;;;;;;;;;5070936;28;19924;-91
2024/03/06 04:24:48;;;;;;;;;;;;;;;;;;5053607;28;20372;-92
2024/03/06 04:27:16;;;;;;;;;;;;;;;;;;5058003;28;19932;-91
2024/03/06 04:29:43;;;;;;;;;;;;;;;;;;5071878;28;19928;-92
2024/03/06 04:32:10;;;;;;;;;;;;;;;;;;5074041;28;19928;-92
2024/03/06 04:34:38;;;;;;;;;;;;;;;;;;5071158;28;19933;-90
2024/03/06 04:37:05;;;;;;;;;;;;;;;;;;5068097;28;19935;-92
2024/03/06 04:39:32;;;;;;;;;;;;;;;;;;5059047;28;19952;-92
2024/03/06 04:41:59;;;;;;;;;;;;;;;;;;5072039;28;19981;-91
2024/03/06 04:44:27;;;;;;;;;;;;;;;;;;5066949;28;19989;-92
2024/03/06 04:46:54;;;;;;;;;;;;;;;;;;5071475;28;19928;-94
2024/03/06 04:49:21;;;;;;;;;;;;;;;;;;5064948;28;19952;-93
2024/03/06 04:51:48;;;;;;;;;;;;;;;;;;5077643;28;19960;-93
2024/03/06 04:54:15;;;;;;;;;;;;;;;;;;5080941;28;19935;-93
2024/03/06 04:56:42;;;;;;;;;;;;;;;;;;5066920;28;20498;-94
2024/03/06 04:59:09;;;;;;;;;;;;;;;;;;5076678;28;19947;-93
2024/03/06 05:01:36;;;;;;;;;;;;;;;;;;5077245;28;19947;-95
2024/03/06 05:04:04;;;;;;;;;;;;;;;;;;5068189;28;19929;-93
2024/03/06 05:06:31;;;;;;;;;;;;;;;;;;5056663;28;19925;-92
2024/03/06 05:08:58;;;;;;;;;;;;;;;;;;5069386;28;19928;-91
2024/03/06 05:11:25;;;;;;;;;;;;;;;;;;5079706;28;19929;-93
2024/03/06 05:13:59;;;;;;;;;;;;;;;;;;5082946;28;19932;-94
2024/03/06 05:16:29;;;;;;;;;;;;;;;;;;5084325;28;19924;-91
2024/03/06 05:18:56;;;;;;;;;;;;;;;;;;5080585;28;20035;-93
2024/03/06 05:21:23;;;;;;;;;;;;;;;;;;5081403;28;19928;-90
2024/03/06 05:23:51;;;;;;;;;;;;;;;;;;5078884;28;19928;-92
2024/03/06 05:26:18;;;;;;;;;;;;;;;;;;5078109;28;19982;-91
2024/03/06 05:28:45;;;;;;;;;;;;;;;;;;5065593;28;19940;-92
2024/03/06 05:31:12;;;;;;;;;;;;;;;;;;5056985;28;20485;-93
2024/03/06 05:33:39;;;;;;;;;;;;;;;;;;5057890;28;19975;-93
2024/03/06 05:36:06;;;;;;;;;;;;;;;;;;5071407;28;19924;-92
2024/03/06 05:38:33;;;;;;;;;;;;;;;;;;5076837;28;20014;-93
2024/03/06 05:41:00;;;;;;;;;;;;;;;;;;5077217;28;20057;-92
2024/03/06 05:43:28;;;;;;;;;;;;;;;;;;5076670;28;19974;-92
2024/03/06 05:45:55;;;;;;;;;;;;;;;;;;5075943;28;19932;-94
2024/03/06 05:48:23;;;;;;;;;;;;;;;;;;5068760;28;19928;-93
2024/03/06 05:50:51;;;;;;;;;;;;;;;;;;5057656;28;19929;-93
2024/03/06 05:53:18;;;;;;;;;;;;;;;;;;5073237;28;20015;-92
2024/03/06 05:55:45;;;;;;;;;;;;;;;;;;5063612;28;20349;-93
2024/03/06 05:58:12;;;;;;;;;;;;;;;;;;5068314;28;19982;-91
2024/03/06 06:00:39;;;;;;;;;;;;;;;;;;5076566;28;19928;-89
2024/03/06 06:03:06;;;;;;;;;;;;;;;;;;5067103;28;20425;-92
2024/03/06 06:05:35;;;;;;;;;;;;;;;;;;5072272;28;19925;-93
2024/03/06 06:08:02;;;;;;;;;;;;;;;;;;5059770;28;20358;-91
2024/03/06 06:10:29;;;;;;;;;;;;;;;;;;5077314;28;20402;-95
2024/03/06 06:12:56;;;;;;;;;;;;;;;;;;5080235;28;19929;-91
2024/03/06 06:15:23;;;;;;;;;;;;;;;;;;5062001;28;20000;-92
2024/03/06 06:17:50;;;;;;;;;;;;;;;;;;5065928;28;19929;-92
2024/03/06 06:20:18;;;;;;;;;;;;;;;;;;5065062;28;19979;-93
2024/03/06 06:22:45;;;;;;;;;;;;;;;;;;5068778;28;19935;-94
2024/03/06 06:25:12;;;;;;;;;;;;;;;;;;5066516;28;19986;-92
2024/03/06 06:27:39;;;;;;;;;;;;;;;;;;5068516;28;19932;-92
2024/03/06 06:30:11;;;;;;;;;;;;;;;;;;5068116;28;19925;-92
2024/03/06 06:32:38;;;;;;;;;;;;;;;;;;5065519;28;19939;-94
2024/03/06 06:35:05;;;;;;;;;;;;;;;;;;5068580;28;19933;-93
2024/03/06 06:37:32;;;;;;;;;;;;;;;;;;5060195;28;19952;-89
2024/03/06 06:40:03;;;;;;;;;;;;;;;;;;5062747;28;20496;-94
2024/03/06 06:42:30;;;;;;;;;;;;;;;;;;5065030;28;19936;-88
2024/03/06 06:44:57;;;;;;;;;;;;;;;;;;5052474;28;19929;-88
2024/03/06 06:47:24;;;;;;;;;;;;;;;;;;5053871;28;20376;-92
2024/03/06 06:49:51;;;;;;;;;;;;;;;;;;5083386;28;19928;-93
2024/03/06 06:52:18;;;;;;;;;;;;;;;;;;5078686;28;19934;-93
2024/03/06 06:54:45;;;;;;;;;;;;;;;;;;5073693;28;19932;-92
2024/03/06 06:57:11;;;;;;;;;;;;;;;;;;5075526;28;19931;-91
2024/03/06 06:59:38;;;;;;;;;;;;;;;;;;5068422;28;19936;-92
2024/03/06 07:02:05;;;;;;;;;;;;;;;;;;5076200;28;19932;-90
2024/03/06 07:04:32;;;;;;;;;;;;;;;;;;5070094;28;20377;-90
2024/03/06 07:07:00;;;;;;;;;;;;;;;;;;5065750;28;19933;-88
2024/03/06 07:09:29;;;;;;;;;;;;;;;;;;5070059;28;19928;-82
2024/03/06 07:11:56;;;;;;;;;;;;;;;;;;5061265;28;20303;-88
2024/03/06 07:14:23;;;;;;;;;;;;;;;;;;5068446;28;19954;-87
2024/03/06 07:16:50;;;;;;;;;;;;;;;;;;5067890;28;20410;-88
2024/03/06 07:19:17;;;;;;;;;;;;;;;;;;5067204;28;19936;-88
2024/03/06 07:21:44;;;;;;;;;;;;;;;;;;5057233;28;19935;-90
2024/03/06 07:24:11;;;;;;;;;;;;;;;;;;5063371;28;19956;-88
2024/03/06 07:26:38;;;;;;;;;;;;;;;;;;5065343;28;20562;-83
2024/03/06 07:29:12;;;;;;;;;;;;;;;;;;5069909;28;19987;-86
2024/03/06 07:31:39;;;;;;;;;;;;;;;;;;5055746;28;19929;-84
2024/03/06 07:34:08;;;;;;;;;;;;;;;;;;5057817;28;19972;-87
2024/03/06 07:36:35;;;;;;;;;;;;;;;;;;5062526;28;20277;-86
2024/03/06 07:39:02;;;;;;;;;;;;;;;;;;5066738;28;19928;-86
2024/03/06 07:41:29;;;;;;;;;;;;;;;;;;5069743;28;19958;-85
2024/03/06 07:43:56;;;;;;;;;;;;;;;;;;5061923;28;20020;-86
2024/03/06 07:46:23;;;;;;;;;;;;;;;;;;5059724;28;19928;-85
2024/03/06 07:48:51;;;;;;;;;;;;;;;;;;5058379;28;19951;-87
2024/03/06 07:51:18;;;;;;;;;;;;;;;;;;5061810;28;19924;-86
2024/03/06 07:53:46;;;;;;;;;;;;;;;;;;5061741;28;20003;-87
2024/03/06 07:56:13;;;;;;;;;;;;;;;;;;5067561;28;19960;-86
2024/03/06 07:58:40;;;;;;;;;;;;;;;;;;5068545;28;20612;-84
2024/03/06 08:01:07;;;;;;;;;;;;;;;;;;5056782;28;19929;-83
2024/03/06 08:03:34;;;;;;;;;;;;;;;;;;5057991;28;19949;-82
2024/03/06 08:06:02;;;;;;;;;;;;;;;;;;5063370;28;19933;-82
2024/03/06 08:08:28;;;;;;;;;;;;;;;;;;5061839;28;19935;-82
2024/03/06 08:10:56;;;;;;;;;;;;;;;;;;5057402;28;19932;-81
2024/03/06 08:13:23;;;;;;;;;;;;;;;;;;5057465;28;19928;-80
2024/03/06 08:15:51;;;;;;;;;;;;;;;;;;5058400;28;20035;-80
2024/03/06 08:18:18;;;;;;;;;;;;;;;;;;5062461;28;19951;-81
2024/03/06 08:20:45;;;;;;;;;;;;;;;;;;5061115;28;20038;-80
2024/03/06 08:23:12;;;;;;;;;;;;;;;;;;5053413;28;19984;-81
2024/03/06 08:25:39;;;;;;;;;;;;;;;;;;5053500;28;20027;-81
2024/03/06 08:28:06;;;;;;;;;;;;;;;;;;5057341;28;19928;-80
2024/03/06 08:30:33;;;;;;;;;;;;;;;;;;5058493;28;19936;-81
2024/03/06 08:33:00;;;;;;;;;;;;;;;;;;5056920;28;19964;-81
2024/03/06 08:35:27;;;;;;;;;;;;;;;;;;5055748;28;19933;-82
2024/03/06 08:37:54;;;;;;;;;;;;;;;;;;5053057;28;20295;-82
2024/03/06 08:40:23;;;;;;;;;;;;;;;;;;5060571;28;19929;-81
2024/03/06 08:42:50;;;;;;;;;;;;;;;;;;5058055;28;20303;-81
2024/03/06 08:45:17;;;;;;;;;;;;;;;;;;5067342;28;20353;-82
2024/03/06 08:47:44;;;;;;;;;;;;;;;;;;5066263;28;20470;-80
2024/03/06 08:50:11;;;;;;;;;;;;;;;;;;5058739;28;19928;-80
2024/03/06 08:52:38;;;;;;;;;;;;;;;;;;5054165;28;20007;-80
2024/03/06 08:55:05;;;;;;;;;;;;;;;;;;5055899;28;20032;-79
2024/03/06 08:57:32;;;;;;;;;;;;;;;;;;5053212;28;20356;-80
2024/03/06 08:59:59;;;;;;;;;;;;;;;;;;5057579;28;19928;-78
2024/03/06 09:02:26;;;;;;;;;;;;;;;;;;5058812;28;19939;-79
2024/03/06 09:04:53;;;;;;;;;;;;;;;;;;5061119;28;20255;-79
2024/03/06 09:07:23;;;;;;;;;;;;;;;;;;5065029;28;20027;-76
2024/03/06 09:09:50;;;;;;;;;;;;;;;;;;5065154;28;19933;-76
2024/03/06 09:12:17;;;;;;;;;;;;;;;;;;5066225;28;20347;-75
2024/03/06 09:14:46;;;;;;;;;;;;;;;;;;5061920;28;21373;-76
2024/03/06 09:17:14;;;;;;;;;;;;;;;;;;5054572;28;20020;-75
2024/03/06 09:19:41;;;;;;;;;;;;;;;;;;5059165;28;20029;-71
2024/03/06 09:22:08;;;;;;;;;;;;;;;;;;5060008;28;20031;-71
2024/03/06 09:24:37;;;;;;;;;;;;;;;;;;5060501;28;20406;-73
2024/03/06 09:27:04;;;;;;;;;;;;;;;;;;5054356;28;20414;-72
2024/03/06 09:29:31;;;;;;;;;;;;;;;;;;5062020;28;20033;-71
2024/03/06 09:31:59;;;;;;;;;;;;;;;;;;5055635;28;20566;-72
2024/03/06 09:34:26;;;;;;;;;;;;;;;;;;5056074;28;19951;-71
2024/03/06 09:36:53;;;;;;;;;;;;;;;;;;5055213;28;20023;-72
2024/03/06 09:39:20;;;;;;;;;;;;;;;;;;5058751;28;19929;-72
2024/03/06 09:41:47;;;;;;;;;;;;;;;;;;5054531;28;19935;-73
2024/03/06 09:44:14;;;;;;;;;;;;;;;;;;5064279;28;19928;-72
2024/03/06 09:46:41;;;;;;;;;;;;;;;;;;5062893;28;20462;-73
2024/03/06 09:49:09;;;;;;;;;;;;;;;;;;5063248;28;19928;-73
2024/03/06 09:51:36;;;;;;;;;;;;;;;;;;5065746;28;20296;-67
2024/03/06 09:54:03;;;;;;;;;;;;;;;;;;5055948;28;20052;-67
2024/03/06 09:56:32;;;;;;;;;;;;;;;;;;5060748;28;19928;-67
2024/03/06 09:58:59;;;;;;;;;;;;;;;;;;5057934;28;19934;-67
2024/03/06 10:01:26;;;;;;;;;;;;;;;;;;5068181;28;20015;-74
2024/03/06 10:03:53;;;;;;;;;;;;;;;;;;5068022;28;20818;-73
2024/03/06 10:06:20;;;;;;;;;;;;;;;;;;5059283;28;20243;-72
2024/03/06 10:08:49;;;;;;;;;;;;;;;;;;5059715;28;19974;-71
2024/03/06 10:11:17;;;;;;;;;;;;;;;;;;5068416;28;19929;-72
2024/03/06 10:13:44;;;;;;;;;;;;;;;;;;5053836;28;19935;-71
2024/03/06 10:16:11;;;;;;;;;;;;;;;;;;5063219;28;20276;-73
2024/03/06 10:18:39;;;;;;;;;;;;;;;;;;5060818;28;20300;-73
2024/03/06 10:21:06;;;;;;;;;;;;;;;;;;5058348;28;20493;-71
2024/03/06 10:23:34;;;;;;;;;;;;;;;;;;5061667;28;20067;-73
2024/03/06 10:26:01;;;;;;;;;;;;;;;;;;5064266;28;19928;-72
2024/03/06 10:28:28;;;;;;;;;;;;;;;;;;5060533;28;19929;-72
2024/03/06 10:30:55;;;;;;;;;;;;;;;;;;5061294;28;19929;-71
2024/03/06 10:33:22;;;;;;;;;;;;;;;;;;5065080;28;19971;-72
2024/03/06 10:35:50;;;;;;;;;;;;;;;;;;5067318;28;19978;-73
2024/03/06 10:38:16;;;;;;;;;;;;;;;;;;5053978;28;20421;-71
2024/03/06 10:40:43;;;;;;;;;;;;;;;;;;5061316;28;20311;-71
2024/03/06 10:43:10;;;;;;;;;;;;;;;;;;5062429;28;19925;-72
2024/03/06 10:45:38;;;;;;;;;;;;;;;;;;5055100;28;20007;-72
2024/03/06 10:48:05;;;;;;;;;;;;;;;;;;5069286;28;20392;-72
2024/03/06 10:50:32;;;;;;;;;;;;;;;;;;5059642;28;20019;-72
2024/03/06 10:53:00;;;;;;;;;;;;;;;;;;5060430;28;19935;-73
2024/03/06 10:55:27;;;;;;;;;;;;;;;;;;5059169;28;19928;-73
2024/03/06 10:57:55;;;;;;;;;;;;;;;;;;5057020;28;19929;-72
2024/03/06 11:00:22;;;;;;;;;;;;;;;;;;5057686;28;20019;-74
2024/03/06 11:02:49;;;;;;;;;;;;;;;;;;5061908;28;19928;-72
2024/03/06 11:05:16;;;;;;;;;;;;;;;;;;5067132;28;20348;-81
2024/03/06 11:07:44;;;;;;;;;;;;;;;;;;5061222;28;20055;-80
2024/03/06 11:10:16;;;;;;;;;;;;;;;;;;5062552;28;19950;-75
2024/03/06 11:12:44;;;;;;;;;;;;;;;;;;5060935;28;20015;-81
2024/03/06 11:15:11;;;;;;;;;;;;;;;;;;5063682;28;20015;-81
2024/03/06 11:17:39;;;;;;;;;;;;;;;;;;5050358;28;20345;-72
2024/03/06 11:20:06;;;;;;;;;;;;;;;;;;5050213;28;20296;-70
2024/03/06 11:22:33;;;;;;;;;;;;;;;;;;5055365;28;19951;-71
2024/03/06 11:25:00;;;;;;;;;;;;;;;;;;5067780;28;19935;-72
2024/03/06 11:27:27;;;;;;;;;;;;;;;;;;5066121;28;19933;-69
2024/03/06 11:29:54;;;;;;;;;;;;;;;;;;5057005;28;19935;-73
2024/03/06 11:32:21;;;;;;;;;;;;;;;;;;5056050;28;19929;-72
2024/03/06 11:34:48;;;;;;;;;;;;;;;;;;5068766;28;19936;-72
2024/03/06 11:37:15;;;;;;;;;;;;;;;;;;5058212;28;20024;-72
2024/03/06 11:39:44;;;;;;;;;;;;;;;;;;5064697;28;19928;-72
2024/03/06 11:42:11;;;;;;;;;;;;;;;;;;5059344;28;19928;-73
2024/03/06 11:44:38;;;;;;;;;;;;;;;;;;5064553;28;20439;-72
2024/03/06 11:47:07;;;;;;;;;;;;;;;;;;5053710;28;20027;-72
2024/03/06 11:49:34;;;;;;;;;;;;;;;;;;5049722;28;19971;-71
2024/03/06 11:52:02;;;;;;;;;;;;;;;;;;5052743;28;19935;-73
2024/03/06 11:54:29;;;;;;;;;;;;;;;;;;5064713;28;19928;-71
2024/03/06 11:56:56;;;;;;;;;;;;;;;;;;5067816;28;19928;-71
2024/03/06 11:59:24;;;;;;;;;;;;;;;;;;5061423;28;19928;-71
2024/03/06 12:01:51;;;;;;;;;;;;;;;;;;5053099;28;20323;-72
2024/03/06 12:04:18;;;;;;;;;;;;;;;;;;5059552;28;19932;-71
2024/03/06 12:06:45;;;;;;;;;;;;;;;;;;5058444;28;19959;-73
2024/03/06 12:09:12;;;;;;;;;;;;;;;;;;5061474;28;19986;-73
2024/03/06 12:11:39;;;;;;;;;;;;;;;;;;5064867;28;19968;-72
2024/03/06 12:14:07;;;;;;;;;;;;;;;;;;5064058;28;19974;-72
2024/03/06 12:16:34;;;;;;;;;;;;;;;;;;5051339;28;20005;-74
2024/03/06 12:19:01;;;;;;;;;;;;;;;;;;5064850;28;20038;-72
2024/03/06 12:21:29;;;;;;;;;;;;;;;;;;5060885;28;20009;-72
2024/03/06 12:23:56;;;;;;;;;;;;;;;;;;5061243;28;19928;-72
2024/03/06 12:26:23;;;;;;;;;;;;;;;;;;5066051;28;20026;-73
2024/03/06 12:28:50;;;;;;;;;;;;;;;;;;5061037;28;19932;-72
2024/03/06 12:31:18;;;;;;;;;;;;;;;;;;5059852;28;19929;-73
2024/03/06 12:33:45;;;;;;;;;;;;;;;;;;5051738;28;20039;-74
2024/03/06 12:36:12;;;;;;;;;;;;;;;;;;5050386;28;20304;-71
2024/03/06 12:38:39;;;;;;;;;;;;;;;;;;5061548;28;19929;-73
2024/03/06 12:41:06;;;;;;;;;;;;;;;;;;5050299;28;20434;-72
2024/03/06 12:43:34;;;;;;;;;;;;;;;;;;5062463;28;19990;-74
2024/03/06 12:46:02;;;;;;;;;;;;;;;;;;5067493;28;19928;-71
2024/03/06 12:48:30;;;;;;;;;;;;;;;;;;5058930;28;20031;-71
2024/03/06 12:51:04;;;;;;;;;;;;;;;;;;5056618;28;20023;-72
2024/03/06 12:53:31;;;;;;;;;;;;;;;;;;5056815;28;19933;-72
2024/03/06 12:55:58;;;;;;;;;;;;;;;;;;5061855;28;20016;-72
2024/03/06 12:58:25;;;;;;;;;;;;;;;;;;5067483;28;20385;-72
2024/03/06 13:00:54;;;;;;;;;;;;;;;;;;5070375;28;19978;-74
2024/03/06 13:03:21;;;;;;;;;;;;;;;;;;5066851;28;19929;-73
2024/03/06 13:05:48;;;;;;;;;;;;;;;;;;5059773;28;19955;-72
2024/03/06 13:08:16;;;;;;;;;;;;;;;;;;5065097;28;19935;-74
2024/03/06 13:10:43;;;;;;;;;;;;;;;;;;5060727;28;20039;-72
2024/03/06 13:13:10;;;;;;;;;;;;;;;;;;5066527;28;20435;-73
2024/03/06 13:15:37;;;;;;;;;;;;;;;;;;5069251;28;20026;-73
2024/03/06 13:18:04;;;;;;;;;;;;;;;;;;5061863;28;19928;-73
2024/03/06 13:20:31;;;;;;;;;;;;;;;;;;5062961;28;20413;-71
2024/03/06 13:22:58;;;;;;;;;;;;;;;;;;5066064;28;20036;-70
2024/03/06 13:25:25;;;;;;;;;;;;;;;;;;5064405;28;19935;-71
2024/03/06 13:27:54;;;;;;;;;;;;;;;;;;5067660;28;20011;-72
2024/03/06 13:30:21;;;;;;;;;;;;;;;;;;5067508;28;19935;-70
2024/03/06 13:32:48;;;;;;;;;;;;;;;;;;5069062;28;19948;-72
2024/03/06 13:35:15;;;;;;;;;;;;;;;;;;5063025;28;20498;-71
2024/03/06 13:37:43;;;;;;;;;;;;;;;;;;5063705;28;20033;-72
2024/03/06 13:40:10;;;;;;;;;;;;;;;;;;5065452;28;19982;-72
2024/03/06 13:42:37;;;;;;;;;;;;;;;;;;5067864;28;19928;-72
2024/03/06 13:45:04;;;;;;;;;;;;;;;;;;5062885;28;19944;-72
2024/03/06 13:47:31;;;;;;;;;;;;;;;;;;5063828;28;20026;-72
2024/03/06 13:49:58;;;;;;;;;;;;;;;;;;5065880;28;19934;-72
2024/03/06 13:52:25;;;;;;;;;;;;;;;;;;5065248;28;20435;-72
2024/03/06 13:54:52;;;;;;;;;;;;;;;;;;5067753;28;20431;-74
2024/03/06 13:57:19;;;;;;;;;;;;;;;;;;5067319;28;19933;-73
2024/03/06 13:59:46;;;;;;;;;;;;;;;;;;5067126;28;19997;-71
2024/03/06 14:02:13;;;;;;;;;;;;;;;;;;5063932;28;19928;-72
2024/03/06 14:04:40;;;;;;;;;;;;;;;;;;5067814;28;19975;-83
2024/03/06 14:07:08;;;;;;;;;;;;;;;;;;5064732;28;20308;-83
2024/03/06 14:09:35;;;;;;;;;;;;;;;;;;5068559;28;19940;-82
2024/03/06 14:12:02;;;;;;;;;;;;;;;;;;5068326;28;19946;-82
2024/03/06 14:14:29;;;;;;;;;;;;;;;;;;5068655;28;19933;-72
2024/03/06 14:16:56;;;;;;;;;;;;;;;;;;5068006;28;19934;-73
2024/03/06 14:19:23;;;;;;;;;;;;;;;;;;5064687;28;20317;-73
2024/03/06 14:21:50;;;;;;;;;;;;;;;;;;5059844;28;20071;-73
2024/03/06 14:24:17;;;;;;;;;;;;;;;;;;5061817;28;19928;-73
2024/03/06 14:26:44;;;;;;;;;;;;;;;;;;5057324;28;20027;-73
2024/03/06 14:29:11;;;;;;;;;;;;;;;;;;5067877;28;20477;-73
2024/03/06 14:31:38;;;;;;;;;;;;;;;;;;5060898;28;20128;-72
2024/03/06 14:34:05;;;;;;;;;;;;;;;;;;5068340;28;19928;-73
2024/03/06 14:36:33;;;;;;;;;;;;;;;;;;5063244;28;19928;-69
2024/03/06 14:39:01;;;;;;;;;;;;;;;;;;5063821;28;19929;-70
2024/03/06 14:41:28;;;;;;;;;;;;;;;;;;5058510;28;20017;-69
2024/03/06 14:43:55;;;;;;;;;;;;;;;;;;5069432;28;20015;-72
2024/03/06 14:46:22;;;;;;;;;;;;;;;;;;5056459;28;19975;-71
2024/03/06 14:48:49;;;;;;;;;;;;;;;;;;5057585;28;20023;-74
2024/03/06 14:51:16;;;;;;;;;;;;;;;;;;5059831;28;19947;-75
2024/03/06 14:53:43;;;;;;;;;;;;;;;;;;5058427;28;19963;-74
2024/03/06 14:56:11;;;;;;;;;;;;;;;;;;5058911;28;19962;-71
2024/03/06 14:58:39;;;;;;;;;;;;;;;;;;5059170;28;19935;-73
2024/03/06 15:01:06;;;;;;;;;;;;;;;;;;5066974;28;20544;-73
2024/03/06 15:03:33;;;;;;;;;;;;;;;;;;5058121;28;19978;-73
2024/03/06 15:06:00;;;;;;;;;;;;;;;;;;5065234;28;19971;-74
2024/03/06 15:08:27;;;;;;;;;;;;;;;;;;5063203;28;19928;-73
2024/03/06 15:10:55;;;;;;;;;;;;;;;;;;5061901;28;19961;-74
2024/03/06 15:13:22;;;;;;;;;;;;;;;;;;5061307;28;19936;-73
2024/03/06 15:15:50;;;;;;;;;;;;;;;;;;5060973;28;19929;-73
2024/03/06 15:18:17;;;;;;;;;;;;;;;;;;5060717;28;20017;-74
2024/03/06 15:20:44;;;;;;;;;;;;;;;;;;5062681;28;19928;-74
2024/03/06 15:23:11;;;;;;;;;;;;;;;;;;5065876;28;19978;-73
2024/03/06 15:25:38;;;;;;;;;;;;;;;;;;5067520;28;19991;-74
2024/03/06 15:28:06;;;;;;;;;;;;;;;;;;5063817;28;20311;-72
2024/03/06 15:30:34;;;;;;;;;;;;;;;;;;5062316;28;20015;-71
2024/03/06 15:33:02;;;;;;;;;;;;;;;;;;5058919;28;19935;-72
2024/03/06 15:35:29;;;;;;;;;;;;;;;;;;5053951;28;20020;-72
2024/03/06 15:37:56;;;;;;;;;;;;;;;;;;5058647;28;19928;-72
2024/03/06 15:40:24;;;;;;;;;;;;;;;;;;5065850;28;19975;-72
2024/03/06 15:42:51;;;;;;;;;;;;;;;;;;5059174;28;19970;-73
2024/03/06 15:45:19;;;;;;;;;;;;;;;;;;5058647;28;20027;-72
2024/03/06 15:47:46;;;;;;;;;;;;;;;;;;5065067;28;19936;-72
2024/03/06 15:50:13;;;;;;;;;;;;;;;;;;5063439;28;20360;-73
2024/03/06 15:52:40;;;;;;;;;;;;;;;;;;5056854;28;20036;-74
2024/03/06 15:55:07;;;;;;;;;;;;;;;;;;5060443;28;19935;-73
2024/03/06 15:57:35;;;;;;;;;;;;;;;;;;5061958;28;20391;-72
2024/03/06 16:00:02;;;;;;;;;;;;;;;;;;5063219;28;19964;-74
2024/03/06 16:02:32;;;;;;;;;;;;;;;;;;5064841;28;19928;-74
2024/03/06 16:04:59;;;;;;;;;;;;;;;;;;5060201;28;20020;-73
2024/03/06 16:07:27;;;;;;;;;;;;;;;;;;5058781;28;19940;-73
2024/03/06 16:09:54;;;;;;;;;;;;;;;;;;5056521;28;19974;-73
2024/03/06 16:12:22;;;;;;;;;;;;;;;;;;5059352;28;20038;-72
2024/03/06 16:14:49;;;;;;;;;;;;;;;;;;5059464;28;20446;-72
2024/03/06 16:17:16;;;;;;;;;;;;;;;;;;5060904;28;19933;-73
2024/03/06 16:19:43;;;;;;;;;;;;;;;;;;5065964;28;20355;-73
2024/03/06 16:22:10;;;;;;;;;;;;;;;;;;5058966;28;19929;-72
2024/03/06 16:24:37;;;;;;;;;;;;;;;;;;5067110;28;19928;-74
2024/03/06 16:27:04;;;;;;;;;;;;;;;;;;5059148;28;19936;-73
2024/03/06 16:29:31;;;;;;;;;;;;;;;;;;5065272;28;20379;-71
2024/03/06 16:31:59;;;;;;;;;;;;;;;;;;5058800;28;20015;-74
2024/03/06 16:34:26;;;;;;;;;;;;;;;;;;5065816;28;19929;-73
2024/03/06 16:36:53;;;;;;;;;;;;;;;;;;5064291;28;19929;-74
2024/03/06 16:39:20;;;;;;;;;;;;;;;;;;5066961;28;20122;-73
2024/03/06 16:41:47;;;;;;;;;;;;;;;;;;5067465;28;19951;-74
2024/03/06 16:44:14;;;;;;;;;;;;;;;;;;5064141;28;20311;-73
2024/03/06 16:46:41;;;;;;;;;;;;;;;;;;5070174;28;20031;-72